Time;durP1;ratioP1;P1;durP2;ratioP2;P2;SDS_P1;SDS_P2;PMS_P1;PMS_P2;Temp;Humidity;BMP_temperature;BMP_pressure;BME280_temperature;BME280_humidity;BME280_pressure;Samples;Min_cycle;Max_cycle;Signal;HPM_P1;HPM_P2
2022/05/21 00:02:06;;;;;;;17.17;9.65;;;11.40;99.90;;;;;;4972019;28;20039;-76
2022/05/21 00:04:32;;;;;;;16.65;11.15;;;11.40;99.90;;;;;;4971983;28;20046;-76
2022/05/21 00:06:58;;;;;;;21.60;12.63;;;11.40;99.90;;;;;;4972020;28;20046;-76
2022/05/21 00:09:25;;;;;;;23.02;14.48;;;11.40;99.90;;;;;;4955834;28;20047;-76
2022/05/21 00:11:51;;;;;;;22.25;14.40;;;11.40;99.90;;;;;;4971850;28;20043;-76
2022/05/21 00:14:16;;;;;;;21.00;16.35;;;11.40;99.90;;;;;;4966663;28;20035;-76
2022/05/21 00:16:42;;;;;;;26.23;17.15;;;11.30;99.90;;;;;;4971865;28;20049;-76
2022/05/21 00:19:08;;;;;;;26.50;17.83;;;11.30;99.90;;;;;;4955773;28;20035;-76
2022/05/21 00:21:34;;;;;;;30.25;19.35;;;11.30;99.90;;;;;;4949376;29;20039;-76
2022/05/21 00:23:59;;;;;;;26.40;17.83;;;11.30;99.90;;;;;;4969694;28;20117;-76
2022/05/21 00:26:25;;;;;;;33.10;18.65;;;11.30;99.90;;;;;;4955871;28;20043;-76
2022/05/21 00:28:51;;;;;;;31.08;19.88;;;11.40;99.90;;;;;;4971798;28;20124;-76
2022/05/21 00:31:18;;;;;;;27.52;19.15;;;11.40;99.90;;;;;;4971208;28;20078;-76
2022/05/21 00:33:45;;;;;;;30.42;20.02;;;11.40;99.90;;;;;;4955768;28;20073;-76
2022/05/21 00:36:12;;;;;;;39.28;21.92;;;11.40;99.90;;;;;;4969712;28;20102;-76
2022/05/21 00:38:39;;;;;;;35.50;22.20;;;11.40;99.90;;;;;;4971817;28;20073;-76
2022/05/21 00:41:07;;;;;;;34.53;22.20;;;11.50;99.90;;;;;;4954560;28;20039;-76
2022/05/21 00:43:40;;;;;;;35.25;22.35;;;11.50;99.90;;;;;;4955540;28;20560;-76
2022/05/21 00:46:13;;;;;;;40.40;23.50;;;11.50;99.90;;;;;;4968999;28;20712;-76
2022/05/21 00:48:40;;;;;;;41.65;25.25;;;11.60;99.90;;;;;;4966852;28;20046;-76
2022/05/21 00:51:14;;;;;;;38.13;23.98;;;11.70;99.90;;;;;;4971040;28;20038;-76
2022/05/21 00:53:41;;;;;;;45.67;25.50;;;11.70;99.90;;;;;;4954116;28;20039;-76
2022/05/21 00:56:07;;;;;;;45.97;26.17;;;11.70;99.90;;;;;;4972203;28;20142;-76
2022/05/21 01:01:18;;;;;;;43.95;27.80;;;11.60;99.90;;;;;;4968881;28;20445;-76
2022/05/21 01:03:44;;;;;;;49.83;28.13;;;11.60;99.90;;;;;;4971564;28;20045;-76
2022/05/21 01:06:11;;;;;;;46.85;27.48;;;11.60;99.90;;;;;;4968941;28;20088;-76
2022/05/21 01:08:38;;;;;;;45.35;28.30;;;11.70;99.90;;;;;;4969855;28;20057;-76
2022/05/21 01:11:09;;;;;;;46.10;29.63;;;11.70;99.90;;;;;;4968950;28;20042;-76
2022/05/21 01:13:38;;;;;;;47.20;29.23;;;11.70;99.90;;;;;;4971450;28;20046;-76
2022/05/21 01:16:04;;;;;;;43.03;27.85;;;11.70;99.90;;;;;;4970576;28;20050;-76
2022/05/21 01:18:31;;;;;;;44.63;27.55;;;11.80;99.90;;;;;;4963439;28;20039;-76
2022/05/21 01:20:59;;;;;;;49.97;29.35;;;11.80;99.90;;;;;;4954864;28;20038;-76
2022/05/21 01:23:25;;;;;;;45.38;28.65;;;11.80;99.90;;;;;;4971153;28;20055;-76
2022/05/21 01:25:53;;;;;;;46.85;29.40;;;11.80;99.90;;;;;;4971543;28;20460;-76
2022/05/21 01:28:22;;;;;;;42.90;28.25;;;11.80;99.90;;;;;;4971129;28;20046;-76
2022/05/21 01:30:51;;;;;;;43.55;28.35;;;11.90;99.90;;;;;;4970465;28;20038;-76
2022/05/21 01:33:21;;;;;;;48.13;31.17;;;11.90;99.90;;;;;;4982242;28;20035;-76
2022/05/21 01:35:47;;;;;;;43.20;29.70;;;12.00;99.90;;;;;;4971059;28;20146;-76
2022/05/21 01:38:15;;;;;;;50.55;30.50;;;12.00;99.90;;;;;;4971080;28;20035;-76
2022/05/21 01:40:41;;;;;;;52.17;30.95;;;12.00;99.90;;;;;;4970659;28;20046;-76
2022/05/21 01:45:52;;;;;;;56.10;31.83;;;12.00;99.90;;;;;;4971188;28;20054;-76
2022/05/21 01:48:24;;;;;;;47.30;31.42;;;12.10;99.90;;;;;;4970706;28;20413;-76
2022/05/21 01:50:52;;;;;;;51.25;32.53;;;12.10;99.90;;;;;;4954102;28;20047;-76
2022/05/21 01:53:18;;;;;;;57.45;34.60;;;12.10;99.90;;;;;;4974405;28;20113;-76
2022/05/21 01:55:45;;;;;;;53.67;32.85;;;12.10;99.90;;;;;;4974553;28;20046;-76
2022/05/21 01:58:12;;;;;;;51.25;33.38;;;12.20;99.90;;;;;;4970749;28;20142;-76
2022/05/21 02:00:40;;;;;;;52.20;34.03;;;12.20;99.90;;;;;;4983305;28;20046;-76
2022/05/21 02:03:07;;;;;;;57.17;35.58;;;12.20;99.90;;;;;;4971569;28;20099;-76
2022/05/21 02:05:33;;;;;;;55.40;34.83;;;12.20;99.90;;;;;;4974472;28;20524;-76
2022/05/21 02:07:59;;;;;;;57.83;34.33;;;12.30;99.90;;;;;;4974526;28;20569;-76
2022/05/21 02:10:24;;;;;;;56.15;33.67;;;12.30;99.90;;;;;;4973600;28;20166;-76
2022/05/21 02:12:50;;;;;;;51.83;35.95;;;12.30;99.90;;;;;;4958425;28;20101;-76
2022/05/21 02:15:16;;;;;;;47.25;34.67;;;12.30;99.90;;;;;;4958301;28;20068;-76
2022/05/21 02:17:41;;;;;;;48.30;34.13;;;12.30;99.90;;;;;;4973304;28;20049;-76
2022/05/21 02:20:08;;;;;;;50.40;35.30;;;12.30;99.90;;;;;;4973905;28;20046;-76
2022/05/21 02:22:36;;;;;;;51.95;35.00;;;12.40;99.90;;;;;;4970717;28;20047;-76
2022/05/21 02:25:03;;;;;;;52.13;36.45;;;12.30;99.90;;;;;;4973849;28;20074;-76
2022/05/21 02:27:29;;;;;;;50.58;36.40;;;12.40;99.90;;;;;;4973816;28;20635;-76
2022/05/21 02:29:54;;;;;;;57.03;36.20;;;12.40;99.90;;;;;;4951543;28;20039;-76
2022/05/21 02:32:20;;;;;;;49.95;35.35;;;12.40;99.90;;;;;;4973363;28;20078;-76
2022/05/21 02:34:45;;;;;;;49.60;34.67;;;12.40;99.90;;;;;;4974297;28;20047;-76
2022/05/21 02:39:55;;;;;;;49.05;36.15;;;12.50;99.90;;;;;;4970999;28;20039;-76
2022/05/21 02:45:05;;;;;;;50.40;32.10;;;12.40;99.90;;;;;;4973396;28;20074;-76
2022/05/21 02:47:31;;;;;;;45.35;31.35;;;12.50;99.90;;;;;;4973367;28;20408;-76
2022/05/21 02:49:57;;;;;;;50.88;33.17;;;12.50;99.90;;;;;;4972862;28;20508;-76
2022/05/21 02:52:23;;;;;;;44.38;32.95;;;12.50;99.90;;;;;;4973950;28;20066;-76
2022/05/21 02:54:49;;;;;;;46.25;33.03;;;12.50;99.90;;;;;;4973650;28;20413;-76
2022/05/21 02:57:15;;;;;;;45.65;32.00;;;12.50;99.90;;;;;;4973712;28;20448;-76
2022/05/21 02:59:41;;;;;;;50.08;30.52;;;12.50;99.90;;;;;;4973058;28;20146;-76
2022/05/21 03:02:08;;;;;;;41.97;31.20;;;12.50;99.90;;;;;;4973499;28;20129;-76
2022/05/21 03:04:34;;;;;;;42.38;30.90;;;12.50;99.90;;;;;;4972890;28;20409;-76
2022/05/21 03:07:00;;;;;;;43.47;31.35;;;12.60;99.90;;;;;;4973220;28;20168;-76
2022/05/21 03:12:12;;;;;;;45.47;31.38;;;12.60;99.90;;;;;;4973083;28;20046;-76
2022/05/21 03:14:38;;;;;;;43.22;30.65;;;12.50;99.90;;;;;;4965105;28;20490;-76
2022/05/21 03:17:05;;;;;;;45.33;30.17;;;12.50;99.90;;;;;;4974290;28;20035;-76
2022/05/21 03:19:33;;;;;;;45.78;29.85;;;12.60;99.90;;;;;;4957006;28;20656;-76
2022/05/21 03:21:59;;;;;;;43.72;28.95;;;12.60;99.90;;;;;;4973172;28;20042;-76
2022/05/21 03:24:26;;;;;;;45.17;29.48;;;12.60;99.90;;;;;;4972764;28;20069;-76
2022/05/21 03:26:51;;;;;;;37.20;26.77;;;12.60;99.90;;;;;;4973137;28;20074;-76
2022/05/21 03:29:17;;;;;;;46.67;27.13;;;12.70;99.90;;;;;;4954974;28;20085;-76
2022/05/21 03:31:43;;;;;;;41.53;25.77;;;12.70;99.90;;;;;;4972765;28;20494;-76
2022/05/21 03:34:09;;;;;;;39.72;25.48;;;12.80;99.90;;;;;;4972776;28;20640;-76
2022/05/21 03:36:34;;;;;;;42.67;23.60;;;12.80;99.90;;;;;;4972762;28;20493;-76
2022/05/21 03:39:00;;;;;;;40.80;22.63;;;12.70;99.90;;;;;;4956238;28;20532;-76
2022/05/21 03:41:26;;;;;;;38.03;22.38;;;12.80;99.90;;;;;;4956135;28;20046;-76
2022/05/21 03:43:53;;;;;;;39.92;22.17;;;12.80;99.90;;;;;;4972903;28;20447;-76
2022/05/21 03:46:19;;;;;;;41.05;21.67;;;12.70;99.90;;;;;;4971791;28;20042;-77
2022/05/21 03:48:45;;;;;;;31.55;18.50;;;12.80;99.90;;;;;;4955045;28;20110;-77
2022/05/21 03:51:11;;;;;;;35.55;19.05;;;12.80;99.90;;;;;;4972276;28;20039;-76
2022/05/21 03:53:37;;;;;;;30.80;16.30;;;12.80;99.90;;;;;;4956260;28;20043;-76
2022/05/21 03:56:04;;;;;;;34.65;17.58;;;12.80;99.90;;;;;;4972154;28;20394;-76
2022/05/21 03:58:30;;;;;;;29.58;13.77;;;12.80;99.90;;;;;;4972190;28;20065;-76
2022/05/21 04:00:56;;;;;;;30.15;13.95;;;12.80;99.90;;;;;;4971999;28;20043;-76
2022/05/21 04:03:21;;;;;;;33.28;14.35;;;12.90;99.90;;;;;;4940148;28;20514;-76
2022/05/21 04:05:48;;;;;;;35.78;14.70;;;12.90;99.90;;;;;;4954606;28;20516;-76
2022/05/21 04:08:16;;;;;;;39.22;14.95;;;13.00;99.90;;;;;;4972010;28;20046;-76
2022/05/21 04:10:42;;;;;;;31.35;13.57;;;12.90;99.90;;;;;;4971260;28;20146;-76
2022/05/21 04:13:07;;;;;;;28.65;12.80;;;12.90;99.90;;;;;;4956540;28;20501;-76
2022/05/21 04:15:34;;;;;;;39.97;13.35;;;13.00;99.90;;;;;;4970910;28;20039;-76
2022/05/21 04:18:00;;;;;;;30.42;12.50;;;13.00;99.90;;;;;;4956028;28;20041;-76
2022/05/21 04:20:26;;;;;;;31.80;12.48;;;13.00;99.90;;;;;;4955423;28;20416;-76
2022/05/21 04:22:51;;;;;;;34.88;11.90;;;13.00;99.90;;;;;;4972172;28;20109;-76
2022/05/21 04:25:17;;;;;;;32.67;10.80;;;13.00;99.90;;;;;;4955563;28;20405;-76
2022/05/21 04:27:43;;;;;;;26.05;9.50;;;13.10;99.90;;;;;;4955691;28;20043;-77
2022/05/21 04:30:16;;;;;;;28.35;9.07;;;13.10;99.90;;;;;;4971373;28;20502;-77
2022/05/21 04:32:46;;;;;;;24.08;7.68;;;13.20;99.90;;;;;;4971869;28;20070;-77
2022/05/21 04:35:12;;;;;;;25.27;7.30;;;13.20;99.90;;;;;;4971837;28;20066;-77
2022/05/21 04:37:39;;;;;;;29.02;7.45;;;13.20;99.90;;;;;;4971626;28;20038;-76
2022/05/21 04:40:07;;;;;;;28.95;6.22;;;13.20;99.90;;;;;;4971155;28;20035;-76
2022/05/21 04:42:32;;;;;;;22.90;5.65;;;13.30;99.90;;;;;;4971534;28;20049;-76
2022/05/21 04:44:58;;;;;;;21.55;4.97;;;13.30;99.90;;;;;;4971359;28;20042;-77
2022/05/21 04:47:24;;;;;;;25.13;5.63;;;13.40;99.90;;;;;;4947463;28;20117;-77
2022/05/21 04:49:50;;;;;;;21.55;4.80;;;13.30;99.90;;;;;;4955202;28;20070;-76
2022/05/21 04:52:15;;;;;;;16.77;4.55;;;13.40;99.90;;;;;;4966822;28;20046;-76
2022/05/21 04:54:41;;;;;;;21.23;4.97;;;13.40;99.90;;;;;;4970772;28;20043;-76
2022/05/21 04:57:06;;;;;;;21.63;4.45;;;13.40;99.90;;;;;;4970904;28;20043;-76
2022/05/21 04:59:32;;;;;;;20.30;4.43;;;13.40;99.90;;;;;;4953331;28;20046;-76
2022/05/21 05:01:58;;;;;;;21.30;4.40;;;13.50;99.90;;;;;;4975860;28;20045;-76
2022/05/21 05:04:24;;;;;;;18.42;4.43;;;13.50;99.90;;;;;;4965812;28;20117;-76
2022/05/21 05:06:49;;;;;;;21.77;4.30;;;13.50;99.90;;;;;;4969280;28;20042;-76
2022/05/21 05:09:22;;;;;;;18.60;4.30;;;13.50;99.90;;;;;;4969434;28;20042;-76
2022/05/21 05:11:52;;;;;;;21.85;4.53;;;13.50;99.90;;;;;;4969494;28;20104;-77
2022/05/21 05:14:18;;;;;;;20.83;4.28;;;13.50;99.90;;;;;;4971102;28;20129;-76
2022/05/21 05:16:45;;;;;;;24.67;4.60;;;13.50;99.90;;;;;;4955006;28;20038;-76
2022/05/21 05:19:11;;;;;;;18.20;4.35;;;13.50;99.90;;;;;;4971083;28;20049;-76
2022/05/21 05:21:37;;;;;;;20.00;4.70;;;13.50;99.90;;;;;;4970944;28;20034;-76
2022/05/21 05:24:03;;;;;;;25.95;4.20;;;13.50;99.90;;;;;;4971121;28;20524;-76
2022/05/21 05:26:29;;;;;;;22.73;4.07;;;13.50;99.90;;;;;;4971821;28;20093;-76
2022/05/21 05:28:55;;;;;;;21.67;4.30;;;13.50;99.90;;;;;;4974825;28;20067;-76
2022/05/21 05:31:21;;;;;;;18.50;4.38;;;13.50;99.90;;;;;;4958753;28;20101;-75
2022/05/21 05:33:46;;;;;;;18.60;4.60;;;13.50;99.90;;;;;;4971058;28;20062;-76
2022/05/21 05:36:12;;;;;;;19.08;4.18;;;13.60;99.90;;;;;;4974855;28;20035;-76
2022/05/21 05:38:38;;;;;;;21.40;4.22;;;13.60;99.90;;;;;;4958999;28;20045;-76
2022/05/21 05:41:07;;;;;;;22.83;4.43;;;13.60;99.90;;;;;;4958547;28;20038;-72
2022/05/21 05:43:33;;;;;;;17.35;4.03;;;13.70;99.90;;;;;;4958078;28;20047;-74
2022/05/21 05:45:59;;;;;;;21.23;5.32;;;13.70;99.90;;;;;;4958010;28;20035;-72
2022/05/21 05:48:29;;;;;;;22.17;4.35;;;13.70;99.90;;;;;;4957525;28;20069;-76
2022/05/21 05:50:56;;;;;;;18.60;4.28;;;13.80;99.90;;;;;;4988409;28;20077;-76
2022/05/21 05:53:22;;;;;;;19.35;3.83;;;13.90;99.90;;;;;;4981646;28;20042;-76
2022/05/21 05:55:48;;;;;;;17.08;3.75;;;13.90;99.90;;;;;;4974551;28;20129;-76
2022/05/21 06:00:58;;;;;;;16.33;3.85;;;13.90;99.90;;;;;;4972459;28;20042;-76
2022/05/21 06:03:24;;;;;;;18.73;3.70;;;14.00;99.90;;;;;;4975341;28;20096;-76
2022/05/21 06:05:50;;;;;;;13.85;3.42;;;14.00;99.90;;;;;;4974393;28;20045;-76
2022/05/21 06:08:16;;;;;;;20.83;3.80;;;14.10;99.90;;;;;;4972074;28;20047;-76
2022/05/21 06:10:44;;;;;;;16.75;3.50;;;14.10;99.90;;;;;;4970523;28;20038;-76
2022/05/21 06:13:10;;;;;;;14.73;3.75;;;14.20;99.90;;;;;;4971495;28;20046;-76
2022/05/21 06:15:38;;;;;;;19.13;3.70;;;14.20;99.90;;;;;;4972218;28;20122;-76
2022/05/21 06:18:08;;;;;;;19.60;4.00;;;14.30;99.90;;;;;;4972380;28;20481;-76
2022/05/21 06:20:35;;;;;;;13.25;3.67;;;14.40;99.90;;;;;;4971783;28;20070;-76
2022/05/21 06:23:01;;;;;;;13.48;3.38;;;14.40;99.90;;;;;;4974137;28;20193;-76
2022/05/21 06:25:29;;;;;;;20.30;3.90;;;14.50;99.90;;;;;;4973651;28;20050;-76
2022/05/21 06:27:54;;;;;;;14.52;3.72;;;14.50;99.90;;;;;;4973715;28;20042;-76
2022/05/21 06:30:23;;;;;;;16.70;3.78;;;14.50;99.90;;;;;;4973339;28;20054;-76
2022/05/21 06:32:49;;;;;;;16.10;4.00;;;14.50;99.90;;;;;;4974085;28;20039;-76
2022/05/21 06:35:17;;;;;;;15.57;3.72;;;14.50;99.90;;;;;;4973036;28;20031;-75
2022/05/21 06:37:43;;;;;;;13.98;4.28;;;14.50;99.90;;;;;;4972280;28;20038;-75
2022/05/21 06:40:11;;;;;;;15.60;3.78;;;14.60;99.90;;;;;;4972289;28;20039;-76
2022/05/21 06:42:37;;;;;;;17.25;4.30;;;14.60;99.90;;;;;;4973183;28;20101;-76
2022/05/21 06:45:03;;;;;;;18.60;4.00;;;14.60;99.90;;;;;;4973133;28;20065;-76
2022/05/21 06:47:29;;;;;;;16.17;3.75;;;14.50;99.90;;;;;;4973467;28;20039;-76
2022/05/21 06:49:56;;;;;;;14.07;3.53;;;14.60;99.90;;;;;;4957297;28;20050;-76
2022/05/21 06:52:24;;;;;;;17.55;3.63;;;14.50;99.90;;;;;;4973724;28;20046;-76
2022/05/21 06:54:50;;;;;;;12.80;3.22;;;14.60;99.90;;;;;;4941915;28;20129;-76
2022/05/21 06:57:16;;;;;;;18.08;3.83;;;14.70;99.90;;;;;;4973294;28;20549;-75
2022/05/21 06:59:42;;;;;;;13.55;3.20;;;14.80;99.90;;;;;;4957229;28;20050;-76
2022/05/21 07:02:08;;;;;;;13.57;3.40;;;14.90;99.90;;;;;;4957396;28;20043;-76
2022/05/21 07:07:33;;;;;;;14.60;3.45;;;15.00;99.90;;;;;;4973075;28;20050;-76
2022/05/21 07:10:07;;;;;;;11.63;2.83;;;15.00;99.90;;;;;;4973144;28;20039;-76
2022/05/21 07:12:34;;;;;;;14.32;3.28;;;15.00;99.90;;;;;;4957460;28;20470;-76
2022/05/21 07:15:00;;;;;;;14.85;3.05;;;15.10;99.90;;;;;;4957263;28;20045;-76
2022/05/21 07:17:26;;;;;;;13.35;2.92;;;15.20;99.90;;;;;;4973088;28;20042;-77
2022/05/21 07:19:52;;;;;;;11.90;3.13;;;15.30;99.90;;;;;;4949039;28;20054;-77
2022/05/21 07:22:18;;;;;;;12.27;3.28;;;15.40;99.90;;;;;;4973000;28;20078;-78
2022/05/21 07:24:44;;;;;;;16.25;2.88;;;15.40;99.90;;;;;;4972748;28;20386;-77
2022/05/21 07:27:12;;;;;;;14.35;3.20;;;15.40;99.90;;;;;;4956979;28;20057;-77
2022/05/21 07:29:38;;;;;;;15.27;3.20;;;15.50;99.90;;;;;;4972728;28;20042;-77
2022/05/21 07:32:05;;;;;;;15.52;3.03;;;15.60;99.90;;;;;;4973078;28;20039;-77
2022/05/21 07:34:31;;;;;;;16.65;3.22;;;15.60;99.90;;;;;;4972887;28;20046;-77
2022/05/21 07:36:56;;;;;;;14.20;3.17;;;15.60;99.90;;;;;;4972692;28;20039;-77
2022/05/21 07:39:22;;;;;;;12.50;3.17;;;15.50;99.90;;;;;;4972634;28;20042;-77
2022/05/21 07:41:48;;;;;;;17.20;3.17;;;15.60;99.90;;;;;;4972512;28;20031;-77
2022/05/21 07:44:14;;;;;;;13.60;3.13;;;15.70;99.90;;;;;;4971826;28;20118;-77
2022/05/21 07:46:39;;;;;;;19.45;3.40;;;15.80;99.90;;;;;;4972332;28;20093;-76
2022/05/21 07:49:05;;;;;;;16.52;3.05;;;15.80;99.90;;;;;;4955877;28;20038;-77
2022/05/21 07:51:30;;;;;;;14.05;2.50;;;15.80;99.90;;;;;;4959635;28;20046;-77
2022/05/21 07:53:56;;;;;;;11.70;2.88;;;15.70;99.90;;;;;;4966436;28;20116;-77
2022/05/21 07:56:22;;;;;;;10.80;2.47;;;15.70;99.90;;;;;;4971781;28;20050;-77
2022/05/21 07:58:49;;;;;;;14.65;2.83;;;15.70;99.90;;;;;;4972272;28;20520;-77
2022/05/21 08:01:16;;;;;;;9.93;2.58;;;15.80;99.90;;;;;;4972250;28;20109;-77
2022/05/21 08:03:43;;;;;;;9.65;2.65;;;15.80;99.90;;;;;;4972314;28;20093;-77
2022/05/21 08:06:09;;;;;;;16.63;3.42;;;15.70;99.90;;;;;;4956159;28;20050;-76
2022/05/21 08:08:35;;;;;;;20.00;3.72;;;15.60;99.90;;;;;;4972102;28;20045;-77
2022/05/21 08:11:01;;;;;;;9.10;2.40;;;15.40;99.90;;;;;;4971824;28;20513;-77
2022/05/21 08:13:26;;;;;;;10.43;2.60;;;15.20;99.90;;;;;;4972084;28;20045;-77
2022/05/21 08:15:52;;;;;;;13.40;2.95;;;15.30;99.90;;;;;;4972394;28;20042;-77
2022/05/21 08:18:18;;;;;;;15.50;2.85;;;15.50;99.90;;;;;;4971843;28;20039;-77
2022/05/21 08:20:43;;;;;;;14.32;2.70;;;15.70;99.90;;;;;;4955821;28;20043;-77
2022/05/21 08:28:42;;;;;;;12.93;2.75;;;16.60;99.90;;;;;;4964508;28;20479;-77
2022/05/21 08:31:08;;;;;;;12.43;3.08;;;16.80;99.90;;;;;;4971558;28;20134;-77
2022/05/21 08:33:34;;;;;;;14.10;2.95;;;16.80;99.90;;;;;;4971990;28;20050;-77
2022/05/21 08:35:59;;;;;;;11.13;2.67;;;16.90;99.90;;;;;;4970609;28;20073;-77
2022/05/21 08:38:26;;;;;;;13.02;2.55;;;16.80;99.90;;;;;;4951014;28;20042;-75
2022/05/21 08:41:05;;;;;;;15.88;3.22;;;16.40;99.90;;;;;;4971122;28;20097;-76
2022/05/21 08:44:01;;;;;;;11.38;2.80;;;16.10;99.90;;;;;;4971760;28;20398;-76
2022/05/21 08:47:00;;;;;;;8.18;1.98;;;16.10;99.90;;;;;;4971211;28;20060;-76
2022/05/21 08:49:52;;;;;;;12.75;2.78;;;16.20;99.90;;;;;;4964962;28;20069;-76
2022/05/21 08:52:24;;;;;;;12.13;2.63;;;16.60;99.90;;;;;;4971611;28;20039;-76
2022/05/21 08:54:54;;;;;;;10.50;2.20;;;17.00;99.90;;;;;;4971942;28;20050;-75
2022/05/21 08:57:31;;;;;;;9.75;2.35;;;17.30;99.90;;;;;;4977991;28;20042;-75
2022/05/21 09:00:33;;;;;;;10.35;2.25;;;17.60;99.90;;;;;;4970934;28;20049;-75
2022/05/21 09:02:59;;;;;;;9.85;2.40;;;17.60;99.90;;;;;;4963539;28;20058;-75
2022/05/21 09:05:26;;;;;;;10.10;2.42;;;17.30;99.90;;;;;;4955860;28;20040;-76
2022/05/21 09:08:30;;;;;;;13.45;2.50;;;17.40;99.90;;;;;;4971146;28;20046;-76
2022/05/21 09:11:01;;;;;;;11.00;2.20;;;17.30;99.90;;;;;;4968385;28;20038;-76
2022/05/21 09:14:09;;;;;;;8.27;2.17;;;17.40;99.90;;;;;;4971049;28;20043;-76
2022/05/21 09:16:55;;;;;;;10.35;2.17;;;17.30;99.90;;;;;;4930223;28;20078;-76
2022/05/21 09:19:25;;;;;;;8.15;2.00;;;17.20;99.90;;;;;;4970655;28;20065;-75
2022/05/21 09:22:04;;;;;;;10.82;2.40;;;17.10;99.90;;;;;;4968018;28;20039;-75
2022/05/21 09:24:42;;;;;;;6.95;2.05;;;17.30;99.90;;;;;;4986085;28;20042;-75
2022/05/21 09:27:32;;;;;;;7.78;2.30;;;17.60;99.90;;;;;;4971091;28;20066;-75
2022/05/21 09:30:21;;;;;;;7.43;1.75;;;17.70;99.90;;;;;;4970784;28;20039;-75
2022/05/21 09:32:52;;;;;;;12.45;2.42;;;17.60;99.90;;;;;;4983505;28;20068;-75
2022/05/21 09:35:24;;;;;;;16.23;2.92;;;17.50;99.90;;;;;;4968982;28;20037;-75
2022/05/21 09:37:50;;;;;;;11.35;2.60;;;17.50;99.90;;;;;;4971051;28;20035;-75
2022/05/21 09:40:36;;;;;;;12.70;2.72;;;17.60;99.90;;;;;;4970784;28;20053;-75
2022/05/21 09:46:22;;;;;;;11.40;2.45;;;17.40;99.90;;;;;;4970793;28;20125;-75
2022/05/21 09:48:49;;;;;;;9.88;2.28;;;17.20;99.90;;;;;;4970953;28;20497;-75
2022/05/21 09:51:24;;;;;;;12.20;3.22;;;17.30;99.90;;;;;;4966051;28;20035;-75
2022/05/21 09:53:51;;;;;;;12.55;2.55;;;17.60;99.90;;;;;;4954684;28;20038;-75
2022/05/21 09:56:21;;;;;;;9.63;1.80;;;18.10;99.90;;;;;;4970625;28;20051;-75
2022/05/21 09:58:50;;;;;;;12.77;2.20;;;18.40;99.90;;;;;;4971001;28;20031;-75
2022/05/21 10:01:40;;;;;;;9.13;2.03;;;18.20;99.90;;;;;;4969303;28;20150;-75
2022/05/21 10:04:19;;;;;;;12.07;2.08;;;18.10;99.90;;;;;;4985488;28;20074;-75
2022/05/21 10:10:58;;;;;;;8.57;2.40;;;18.00;99.90;;;;;;4970522;28;20047;-75
2022/05/21 10:12:58;;;;;;;9.45;2.45;;;17.70;99.90;;;;;;4970662;28;20043;-75
2022/05/21 10:15:29;;;;;;;12.32;2.58;;;17.60;99.90;;;;;;4972536;28;20039;-75
2022/05/21 10:18:39;;;;;;;8.43;2.20;;;17.70;99.90;;;;;;4958281;28;20043;-75
2022/05/21 10:21:15;;;;;;;7.95;2.08;;;18.10;99.90;;;;;;4940554;28;20147;-75
2022/05/21 10:23:48;;;;;;;9.85;2.45;;;18.40;99.90;;;;;;4928078;28;20062;-75
2022/05/21 10:26:40;;;;;;;6.88;2.00;;;18.40;99.90;;;;;;4960221;28;20047;-75
2022/05/21 10:29:32;;;;;;;7.57;1.90;;;18.50;99.90;;;;;;4959857;28;20047;-75
2022/05/21 10:32:12;;;;;;;7.35;1.90;;;18.40;99.90;;;;;;4973941;28;20126;-75
2022/05/21 10:35:19;;;;;;;8.35;2.10;;;18.40;99.90;;;;;;4957844;28;20059;-75
2022/05/21 10:38:04;;;;;;;7.70;1.80;;;18.40;99.90;;;;;;4986142;28;20118;-76
2022/05/21 10:40:41;;;;;;;10.13;2.58;;;18.40;99.90;;;;;;4973348;28;20050;-76
2022/05/21 10:43:12;;;;;;;7.32;1.88;;;18.60;99.90;;;;;;4974016;28;20456;-76
2022/05/21 10:45:57;;;;;;;8.13;1.73;;;18.80;99.90;;;;;;4973897;28;20038;-75
2022/05/21 10:48:55;;;;;;;6.80;1.90;;;18.90;99.90;;;;;;4963518;28;20512;-75
2022/05/21 10:51:31;;;;;;;6.53;1.80;;;19.00;99.90;;;;;;4971287;28;20129;-75
2022/05/21 10:54:23;;;;;;;6.05;1.63;;;19.10;99.90;;;;;;4970019;28;20089;-75
2022/05/21 10:57:20;;;;;;;8.27;1.52;;;19.00;99.90;;;;;;4973696;28;20122;-75
2022/05/21 11:00:04;;;;;;;7.70;1.83;;;18.90;99.90;;;;;;4941751;28;20054;-75
2022/05/21 11:03:20;;;;;;;9.15;1.55;;;19.10;99.90;;;;;;4971362;28;20084;-75
2022/05/21 11:06:10;;;;;;;6.85;1.73;;;19.60;99.90;;;;;;4940257;28;20046;-75
2022/05/21 11:08:48;;;;;;;7.40;1.55;;;19.70;99.90;;;;;;4971195;28;20085;-75
2022/05/21 11:11:19;;;;;;;6.63;1.88;;;19.60;99.90;;;;;;4970837;28;20050;-75
2022/05/21 11:13:45;;;;;;;8.43;2.07;;;19.80;99.90;;;;;;4968684;28;20042;-75
2022/05/21 11:16:22;;;;;;;3.75;1.35;;;19.90;99.90;;;;;;4972404;28;20093;-75
2022/05/21 11:18:56;;;;;;;7.47;2.30;;;19.80;99.90;;;;;;4973103;28;20046;-75
2022/05/21 11:21:30;;;;;;;8.93;1.67;;;19.80;99.90;;;;;;4972971;28;20043;-75
2022/05/21 11:24:09;;;;;;;7.47;1.83;;;20.10;99.90;;;;;;4972539;28;20043;-76
2022/05/21 11:26:42;;;;;;;8.30;1.88;;;20.50;99.90;;;;;;4983035;28;20043;-76
2022/05/21 11:29:22;;;;;;;8.13;2.25;;;20.60;99.90;;;;;;4969390;28;20031;-76
2022/05/21 11:37:30;;;;;;;10.05;2.10;;;20.20;98.20;;;;;;4964446;28;20042;-75
2022/05/21 11:39:58;;;;;;;11.15;2.35;;;19.80;99.90;;;;;;4968455;28;20042;-76
2022/05/21 11:42:30;;;;;;;10.38;2.20;;;19.60;99.90;;;;;;4971924;28;20038;-76
2022/05/21 11:45:13;;;;;;;6.80;2.13;;;19.30;99.90;;;;;;4972733;28;20098;-76
2022/05/21 11:47:43;;;;;;;9.57;2.15;;;19.20;99.90;;;;;;4972979;28;20125;-76
2022/05/21 11:50:14;;;;;;;8.18;2.10;;;19.40;99.90;;;;;;4972128;28;20074;-76
2022/05/21 11:52:39;;;;;;;11.68;2.55;;;19.60;99.90;;;;;;4972466;28;20035;-76
2022/05/21 11:55:11;;;;;;;10.88;2.15;;;19.70;99.90;;;;;;4972818;28;20094;-76
2022/05/21 11:57:39;;;;;;;9.48;2.38;;;19.80;99.90;;;;;;4983565;28;20034;-76
2022/05/21 12:00:05;;;;;;;10.02;2.20;;;19.70;99.90;;;;;;4972510;28;20141;-75
2022/05/21 12:02:38;;;;;;;11.55;2.13;;;19.70;99.90;;;;;;4970009;28;20153;-75
2022/05/21 12:05:23;;;;;;;12.88;2.45;;;19.70;99.90;;;;;;4972319;28;20042;-76
2022/05/21 12:07:53;;;;;;;8.93;1.77;;;19.60;99.90;;;;;;4972279;28;20043;-75
2022/05/21 12:10:21;;;;;;;10.43;2.38;;;19.40;99.90;;;;;;4970298;28;20494;-75
2022/05/21 12:13:12;;;;;;;11.65;2.20;;;19.20;99.90;;;;;;4971229;28;20046;-75
2022/05/21 12:15:44;;;;;;;9.50;2.20;;;19.20;99.90;;;;;;4963101;28;20516;-75
2022/05/21 12:18:34;;;;;;;11.00;2.35;;;18.90;99.90;;;;;;4970525;28;20485;-75
2022/05/21 12:21:00;;;;;;;12.35;2.63;;;18.80;99.90;;;;;;4970301;28;20529;-75
2022/05/21 12:23:25;;;;;;;12.23;2.63;;;18.80;99.90;;;;;;4971167;28;20046;-74
2022/05/21 12:26:16;;;;;;;12.52;2.50;;;18.80;99.90;;;;;;4971033;28;20042;-75
2022/05/21 12:28:51;;;;;;;9.52;2.30;;;18.80;99.90;;;;;;4966850;28;20401;-75
2022/05/21 12:31:27;;;;;;;10.18;2.33;;;18.80;99.90;;;;;;4970582;28;20054;-75
2022/05/21 12:34:04;;;;;;;11.35;2.70;;;18.60;99.90;;;;;;4953237;28;20405;-75
2022/05/21 12:36:55;;;;;;;11.43;2.42;;;18.80;99.90;;;;;;4969774;28;20371;-75
2022/05/21 12:39:41;;;;;;;10.48;2.45;;;19.00;99.90;;;;;;4964794;28;20699;-75
2022/05/21 12:42:39;;;;;;;10.52;2.40;;;19.00;99.90;;;;;;4992123;28;20092;-75
2022/05/21 12:45:06;;;;;;;7.90;1.80;;;18.90;99.90;;;;;;4971096;28;20555;-74
2022/05/21 12:47:35;;;;;;;11.35;2.03;;;18.70;99.90;;;;;;4971143;28;20498;-74
2022/05/21 12:50:11;;;;;;;7.05;1.95;;;18.50;99.90;;;;;;4970779;28;20054;-74
2022/05/21 12:52:49;;;;;;;10.85;2.20;;;18.40;99.90;;;;;;4982799;28;20141;-74
2022/05/21 12:55:21;;;;;;;10.80;2.42;;;18.30;99.90;;;;;;4963571;28;20034;-74
2022/05/21 12:57:48;;;;;;;;;;;18.30;99.90;;;;;;4971872;28;20130;-74
2022/05/21 13:00:16;;;;;;;7.68;1.85;;;18.30;99.90;;;;;;4971186;28;20258;-74
2022/05/21 13:02:47;;;;;;;7.40;2.20;;;18.60;99.90;;;;;;4971091;28;20045;-74
2022/05/21 13:05:22;;;;;;;14.98;2.45;;;18.90;99.90;;;;;;4954939;28;20404;-74
2022/05/21 13:07:50;;;;;;;10.23;2.35;;;19.10;99.90;;;;;;4967339;28;20396;-75
2022/05/21 13:10:21;;;;;;;11.05;2.58;;;19.10;99.90;;;;;;4969532;28;20397;-75
2022/05/21 13:12:51;;;;;;;6.78;1.77;;;19.00;99.90;;;;;;4983595;28;20466;-75
2022/05/21 13:15:29;;;;;;;9.40;2.13;;;19.00;99.90;;;;;;4970820;28;20050;-75
2022/05/21 13:18:22;;;;;;;10.38;2.30;;;18.90;99.90;;;;;;4970492;28;20039;-75
2022/05/21 13:21:00;;;;;;;10.10;2.00;;;19.00;99.90;;;;;;4967347;28;20390;-75
2022/05/21 13:23:48;;;;;;;11.30;1.90;;;18.90;99.90;;;;;;4964578;28;20047;-75
2022/05/21 13:26:40;;;;;;;8.60;2.05;;;19.10;99.90;;;;;;4970531;28;20477;-75
2022/05/21 13:29:36;;;;;;;9.57;1.95;;;19.00;99.90;;;;;;4968513;28;20390;-75
2022/05/21 13:32:23;;;;;;;7.88;2.20;;;19.00;99.90;;;;;;4955212;28;20061;-75